createdAt,value
2018-07-11T00:00:38.695Z,1016.79
2018-07-11T00:01:38.674Z,1016.77
2018-07-11T00:02:38.674Z,1016.76
2018-07-11T00:03:38.683Z,1016.76
2018-07-11T00:04:38.681Z,1016.79
2018-07-11T00:05:38.638Z,1016.81
2018-07-11T00:06:38.669Z,1016.77
2018-07-11T00:07:38.670Z,1016.8
2018-07-11T00:08:38.660Z,1016.82
2018-07-11T00:09:38.665Z,1016.78
2018-07-11T00:10:38.663Z,1016.79
2018-07-11T00:11:38.689Z,1016.79
2018-07-11T00:12:38.674Z,1016.81
2018-07-11T00:13:38.679Z,1016.8
2018-07-11T00:14:38.685Z,1016.78
2018-07-11T00:15:38.667Z,1016.83
2018-07-11T00:16:38.684Z,1016.78
2018-07-11T00:17:38.666Z,1016.83
2018-07-11T00:18:38.697Z,1016.78
2018-07-11T00:19:38.671Z,1016.75
2018-07-11T00:20:38.662Z,1016.71
2018-07-11T00:21:38.796Z,1016.7
2018-07-11T00:22:38.693Z,1016.7
2018-07-11T00:23:38.692Z,1016.67
2018-07-11T00:24:38.748Z,1016.71
2018-07-11T00:25:38.659Z,1016.7
2018-07-11T00:26:38.804Z,1016.74
2018-07-11T00:27:38.668Z,1016.71
2018-07-11T00:28:38.699Z,1016.73
2018-07-11T00:29:38.847Z,1016.71
2018-07-11T00:30:38.675Z,1016.68
2018-07-11T00:31:38.729Z,1016.71
2018-07-11T00:32:38.684Z,1016.68
2018-07-11T00:33:38.695Z,1016.75
2018-07-11T00:34:38.728Z,1016.76
2018-07-11T00:35:38.720Z,1016.73
2018-07-11T00:36:38.700Z,1016.72
2018-07-11T00:37:38.730Z,1016.71
2018-07-11T00:38:38.857Z,1016.69
2018-07-11T00:39:38.776Z,1016.68
2018-07-11T00:40:38.685Z,1016.68
2018-07-11T00:41:38.847Z,1016.65
2018-07-11T00:42:38.849Z,1016.66
2018-07-11T00:43:38.684Z,1016.69
2018-07-11T00:44:38.710Z,1016.66
2018-07-11T00:45:38.868Z,1016.71
2018-07-11T00:46:38.700Z,1016.71
2018-07-11T00:47:38.699Z,1016.74
2018-07-11T00:48:38.720Z,1016.76
2018-07-11T00:49:39.009Z,1016.79
2018-07-11T00:50:39.011Z,1016.78
2018-07-11T00:51:38.688Z,1016.77
2018-07-11T00:52:38.814Z,1016.77
2018-07-11T00:53:38.715Z,1016.76
2018-07-11T00:54:38.693Z,1016.75
2018-07-11T00:55:38.745Z,1016.73
2018-07-11T00:56:38.711Z,1016.71
2018-07-11T00:57:38.685Z,1016.74
2018-07-11T00:58:38.693Z,1016.71
2018-07-11T00:59:38.679Z,1016.69
2018-07-11T01:00:38.745Z,1016.7
2018-07-11T01:01:38.879Z,1016.74
2018-07-11T01:02:38.744Z,1016.75
2018-07-11T01:03:38.697Z,1016.77
2018-07-11T01:04:38.704Z,1016.75
2018-07-11T01:05:38.699Z,1016.78
2018-07-11T01:06:38.777Z,1016.73
2018-07-11T01:07:38.719Z,1016.76
2018-07-11T01:08:38.702Z,1016.75
2018-07-11T01:09:38.696Z,1016.77
2018-07-11T01:10:38.704Z,1016.78
2018-07-11T01:11:38.713Z,1016.79
2018-07-11T01:12:38.683Z,1016.78
2018-07-11T01:13:38.714Z,1016.78
2018-07-11T01:14:38.692Z,1016.79
2018-07-11T01:15:38.705Z,1016.8
2018-07-11T01:16:38.706Z,1016.84
2018-07-11T01:17:38.709Z,1016.83
2018-07-11T01:18:38.704Z,1016.83
2018-07-11T01:19:38.731Z,1016.86
2018-07-11T01:20:38.729Z,1016.87
2018-07-11T01:21:38.702Z,1016.85
2018-07-11T01:22:38.707Z,1016.89
2018-07-11T01:23:38.745Z,1016.89
2018-07-11T01:24:38.740Z,1016.86
2018-07-11T01:25:38.731Z,1016.84
2018-07-11T01:26:38.700Z,1016.85
2018-07-11T01:27:38.708Z,1016.89
2018-07-11T01:28:38.698Z,1016.88
2018-07-11T01:29:38.694Z,1016.89
2018-07-11T01:30:38.716Z,1016.86
2018-07-11T01:31:38.736Z,1016.87
2018-07-11T01:32:38.705Z,1016.82
2018-07-11T01:33:38.714Z,1016.85
2018-07-11T01:34:38.720Z,1016.84
2018-07-11T01:35:38.720Z,1016.88
2018-07-11T01:36:38.713Z,1016.91
2018-07-11T01:37:38.775Z,1016.89
2018-07-11T01:38:38.736Z,1016.89
2018-07-11T01:39:38.789Z,1016.9
2018-07-11T01:40:38.736Z,1016.9
2018-07-11T01:41:38.742Z,1016.95
2018-07-11T01:42:38.753Z,1016.91
2018-07-11T01:43:38.736Z,1016.91
2018-07-11T01:44:38.742Z,1016.93
2018-07-11T01:45:38.799Z,1016.98
2018-07-11T01:46:38.700Z,1016.97
2018-07-11T01:47:38.708Z,1016.95
2018-07-11T01:48:38.764Z,1016.99
2018-07-11T01:49:39.167Z,1016.97
2018-07-11T01:50:38.761Z,1016.97
2018-07-11T01:51:38.879Z,1016.95
2018-07-11T01:52:38.727Z,1016.96
2018-07-11T01:53:38.746Z,1016.95
2018-07-11T01:54:38.797Z,1016.87
2018-07-11T01:55:38.766Z,1016.86
2018-07-11T01:56:38.741Z,1016.87
2018-07-11T01:57:38.740Z,1016.87
2018-07-11T01:58:38.759Z,1016.87
2018-07-11T01:59:38.718Z,1016.89
2018-07-11T02:00:38.725Z,1016.92
2018-07-11T02:01:38.743Z,1016.92
2018-07-11T02:02:38.732Z,1016.88
2018-07-11T02:03:38.881Z,1016.88
2018-07-11T02:04:38.727Z,1016.84
2018-07-11T02:05:38.751Z,1016.86
2018-07-11T02:06:38.778Z,1016.86
2018-07-11T02:07:38.754Z,1016.86
2018-07-11T02:08:38.753Z,1016.88
2018-07-11T02:09:38.800Z,1016.86
2018-07-11T02:10:38.754Z,1016.84
2018-07-11T02:11:38.802Z,1016.83
2018-07-11T02:12:38.768Z,1016.84
2018-07-11T02:13:38.972Z,1016.8
2018-07-11T02:14:38.732Z,1016.82
2018-07-11T02:15:38.740Z,1016.82
2018-07-11T02:16:38.722Z,1016.81
2018-07-11T02:17:38.758Z,1016.81
2018-07-11T02:18:38.913Z,1016.83
2018-07-11T02:19:38.734Z,1016.86
2018-07-11T02:20:38.957Z,1016.84
2018-07-11T02:21:38.881Z,1016.82
2018-07-11T02:22:38.841Z,1016.84
2018-07-11T02:23:38.737Z,1016.83
2018-07-11T02:24:38.744Z,1016.85
2018-07-11T02:25:38.761Z,1016.85
2018-07-11T02:26:38.769Z,1016.84
2018-07-11T02:27:38.765Z,1016.83
2018-07-11T02:28:38.743Z,1016.84
2018-07-11T02:29:38.743Z,1016.83
2018-07-11T02:30:38.788Z,1016.83
2018-07-11T02:31:38.772Z,1016.87
2018-07-11T02:32:38.736Z,1016.94
2018-07-11T02:33:38.754Z,1016.97
2018-07-11T02:34:38.758Z,1017
2018-07-11T02:35:38.751Z,1016.98
2018-07-11T02:36:38.781Z,1016.99
2018-07-11T02:37:38.819Z,1016.94
2018-07-11T02:38:38.758Z,1016.97
2018-07-11T02:39:38.768Z,1016.93
2018-07-11T02:40:39.067Z,1016.94
2018-07-11T02:41:38.766Z,1016.96
2018-07-11T02:42:38.761Z,1016.94
2018-07-11T02:43:38.776Z,1016.98
2018-07-11T02:44:38.743Z,1016.94
2018-07-11T02:45:38.785Z,1016.96
2018-07-11T02:46:38.743Z,1017
2018-07-11T02:47:38.768Z,1017.02
2018-07-11T02:48:38.761Z,1017
2018-07-11T02:49:38.941Z,1017
2018-07-11T02:50:38.771Z,1017.03
2018-07-11T02:51:38.769Z,1017.04
2018-07-11T02:52:38.942Z,1017.02
2018-07-11T02:53:38.760Z,1017.04
2018-07-11T02:54:38.812Z,1017.03
2018-07-11T02:55:38.790Z,1017.02
2018-07-11T02:56:38.832Z,1017.04
2018-07-11T02:57:38.817Z,1017.02
2018-07-11T02:58:38.789Z,1017.04
2018-07-11T02:59:38.779Z,1017.03
2018-07-11T03:00:38.888Z,1017.03
2018-07-11T03:01:38.941Z,1017.04
2018-07-11T03:02:38.927Z,1017.05
2018-07-11T03:03:40.051Z,1017.03
2018-07-11T03:04:38.846Z,1017.03
2018-07-11T03:05:38.810Z,1017.01
2018-07-11T03:06:38.766Z,1017.03
2018-07-11T03:07:38.803Z,1016.99
2018-07-11T03:08:39.064Z,1017.02
2018-07-11T03:09:38.818Z,1017.03
2018-07-11T03:10:38.904Z,1016.99
2018-07-11T03:11:38.786Z,1017.06
2018-07-11T03:12:38.778Z,1017.03
2018-07-11T03:13:38.903Z,1016.99
2018-07-11T03:14:38.824Z,1017
2018-07-11T03:15:38.925Z,1017.05
2018-07-11T03:16:38.821Z,1017.05
2018-07-11T03:17:38.828Z,1017.05
2018-07-11T03:18:38.956Z,1017.06
2018-07-11T03:19:38.818Z,1017.08
2018-07-11T03:20:38.807Z,1017.03
2018-07-11T03:21:38.828Z,1017.08
2018-07-11T03:22:38.779Z,1017.06
2018-07-11T03:23:38.777Z,1017.07
2018-07-11T03:24:38.777Z,1017.06
2018-07-11T03:25:38.942Z,1017.1
2018-07-11T03:26:38.957Z,1017.05
2018-07-11T03:27:38.786Z,1017.09
2018-07-11T03:28:38.788Z,1017.08
2018-07-11T03:29:38.795Z,1017.09
2018-07-11T03:30:39.206Z,1017.16
2018-07-11T03:31:38.807Z,1017.15
2018-07-11T03:32:39.081Z,1017.14
2018-07-11T03:33:38.803Z,1017.12
2018-07-11T03:34:38.797Z,1017.14
2018-07-11T03:35:38.918Z,1017.18
2018-07-11T03:36:38.795Z,1017.14
2018-07-11T03:37:38.795Z,1017.16
2018-07-11T03:38:38.775Z,1017.2
2018-07-11T03:39:38.811Z,1017.16
2018-07-11T03:40:38.807Z,1017.17
2018-07-11T03:41:38.795Z,1017.18
2018-07-11T03:42:38.799Z,1017.2
2018-07-11T03:43:38.848Z,1017.22
2018-07-11T03:44:38.788Z,1017.18
2018-07-11T03:45:38.798Z,1017.23
2018-07-11T03:46:38.829Z,1017.23
2018-07-11T03:47:38.815Z,1017.2
2018-07-11T03:48:38.814Z,1017.25
2018-07-11T03:49:38.868Z,1017.29
2018-07-11T03:50:38.837Z,1017.29
2018-07-11T03:51:38.800Z,1017.25
2018-07-11T03:52:38.794Z,1017.22
2018-07-11T03:53:38.864Z,1017.23
2018-07-11T03:54:38.789Z,1017.21
2018-07-11T03:55:38.862Z,1017.2
2018-07-11T03:56:38.794Z,1017.22
2018-07-11T03:57:38.783Z,1017.19
2018-07-11T03:58:38.794Z,1017.24
2018-07-11T03:59:38.954Z,1017.27
2018-07-11T04:00:38.919Z,1017.28
2018-07-11T04:01:38.940Z,1017.28
2018-07-11T04:02:38.827Z,1017.24
2018-07-11T04:03:38.871Z,1017.28
2018-07-11T04:04:38.813Z,1017.31
2018-07-11T04:05:38.807Z,1017.32
2018-07-11T04:06:39.015Z,1017.35
2018-07-11T04:07:38.804Z,1017.28
2018-07-11T04:08:38.819Z,1017.32
2018-07-11T04:09:38.866Z,1017.3
2018-07-11T04:10:39.000Z,1017.29
2018-07-11T04:11:39.206Z,1017.31
2018-07-11T04:12:38.834Z,1017.29
2018-07-11T04:13:38.852Z,1017.33
2018-07-11T04:14:38.918Z,1017.34
2018-07-11T04:15:38.968Z,1017.3
2018-07-11T04:16:38.826Z,1017.32
2018-07-11T04:17:39.224Z,1017.33
2018-07-11T04:18:38.814Z,1017.37
2018-07-11T04:19:38.930Z,1017.37
2018-07-11T04:20:38.903Z,1017.34
2018-07-11T04:21:38.865Z,1017.39
2018-07-11T04:22:38.881Z,1017.4
2018-07-11T04:23:38.937Z,1017.38
2018-07-11T04:24:38.881Z,1017.35
2018-07-11T04:25:38.864Z,1017.4
2018-07-11T04:26:38.965Z,1017.38
2018-07-11T04:27:39.218Z,1017.4
2018-07-11T04:28:39.077Z,1017.4
2018-07-11T04:29:38.957Z,1017.41
2018-07-11T04:30:38.984Z,1017.42
2018-07-11T04:31:38.873Z,1017.44
2018-07-11T04:32:38.942Z,1017.47
2018-07-11T04:33:38.975Z,1017.5
2018-07-11T04:34:39.041Z,1017.52
2018-07-11T04:35:38.950Z,1017.56
2018-07-11T04:36:38.953Z,1017.61
2018-07-11T04:37:39.050Z,1017.57
2018-07-11T04:38:38.917Z,1017.57
2018-07-11T04:39:39.706Z,1017.58
2018-07-11T04:40:38.964Z,1017.55
2018-07-11T04:41:38.807Z,1017.57
2018-07-11T04:42:39.518Z,1017.58
2018-07-11T04:43:38.917Z,1017.59
2018-07-11T04:44:38.886Z,1017.57
2018-07-11T04:45:38.956Z,1017.58
2018-07-11T04:46:38.903Z,1017.59
2018-07-11T04:47:38.881Z,1017.62
2018-07-11T04:48:38.886Z,1017.61
2018-07-11T04:49:38.917Z,1017.6
2018-07-11T04:50:38.865Z,1017.61
2018-07-11T04:51:38.836Z,1017.64
2018-07-11T04:52:38.895Z,1017.63
2018-07-11T04:53:38.839Z,1017.63
2018-07-11T04:54:38.827Z,1017.59
2018-07-11T04:55:38.835Z,1017.6
2018-07-11T04:56:38.863Z,1017.62
2018-07-11T04:57:38.872Z,1017.59
2018-07-11T04:58:39.044Z,1017.61
2018-07-11T04:59:38.848Z,1017.63
2018-07-11T05:00:38.828Z,1017.63
2018-07-11T05:01:40.066Z,1017.67
2018-07-11T05:02:39.022Z,1017.63
2018-07-11T05:03:38.855Z,1017.72
2018-07-11T05:04:38.964Z,1017.76
2018-07-11T05:05:38.838Z,1017.75
2018-07-11T05:06:38.918Z,1017.71
2018-07-11T05:07:38.847Z,1017.72
2018-07-11T05:08:38.878Z,1017.73
2018-07-11T05:09:38.870Z,1017.74
2018-07-11T05:10:38.836Z,1017.71
2018-07-11T05:11:38.830Z,1017.7
2018-07-11T05:12:38.881Z,1017.75
2018-07-11T05:13:38.887Z,1017.76
2018-07-11T05:14:38.915Z,1017.74
2018-07-11T05:15:38.911Z,1017.77
2018-07-11T05:16:39.124Z,1017.77
2018-07-11T05:17:38.942Z,1017.79
2018-07-11T05:18:39.032Z,1017.76
2018-07-11T05:19:38.916Z,1017.82
2018-07-11T05:20:38.929Z,1017.83
2018-07-11T05:21:38.863Z,1017.83
2018-07-11T05:22:38.977Z,1017.84
2018-07-11T05:23:38.986Z,1017.83
2018-07-11T05:24:38.868Z,1017.83
2018-07-11T05:25:38.959Z,1017.86
2018-07-11T05:26:38.845Z,1017.85
2018-07-11T05:27:39.250Z,1017.83
2018-07-11T05:28:38.993Z,1017.84
2018-07-11T05:29:38.885Z,1017.83
2018-07-11T05:30:38.893Z,1017.84
2018-07-11T05:31:38.921Z,1017.87
2018-07-11T05:32:38.917Z,1017.82
2018-07-11T05:33:39.009Z,1017.83
2018-07-11T05:34:38.879Z,1017.82
2018-07-11T05:35:38.994Z,1017.84
2018-07-11T05:36:38.987Z,1017.82
2018-07-11T05:37:38.885Z,1017.86
2018-07-11T05:38:38.961Z,1017.85
2018-07-11T05:39:38.936Z,1017.87
2018-07-11T05:40:38.877Z,1017.87
2018-07-11T05:41:39.002Z,1017.9
2018-07-11T05:42:38.937Z,1017.85
2018-07-11T05:43:39.160Z,1017.87
2018-07-11T05:44:38.857Z,1017.87
2018-07-11T05:45:38.870Z,1017.87
2018-07-11T05:46:39.041Z,1017.84
2018-07-11T05:47:38.845Z,1017.87
2018-07-11T05:48:38.940Z,1017.86
2018-07-11T05:49:38.865Z,1017.88
2018-07-11T05:50:38.943Z,1017.87
2018-07-11T05:51:38.926Z,1017.9
2018-07-11T05:52:38.936Z,1017.91
2018-07-11T05:53:38.964Z,1017.92
2018-07-11T05:54:38.949Z,1017.9
2018-07-11T05:55:38.989Z,1017.91
2018-07-11T05:56:38.853Z,1017.96
2018-07-11T05:57:38.880Z,1017.93
2018-07-11T05:58:38.955Z,1017.93
2018-07-11T05:59:39.180Z,1017.95
2018-07-11T06:00:38.975Z,1017.93
2018-07-11T06:01:39.063Z,1018.04
2018-07-11T06:02:39.052Z,1017.96
2018-07-11T06:03:39.126Z,1018.02
2018-07-11T06:04:41.909Z,1017.98
2018-07-11T06:05:38.898Z,1017.99
2018-07-11T06:06:38.977Z,1018.02
2018-07-11T06:07:39.092Z,1018.04
2018-07-11T06:08:38.894Z,1018.05
2018-07-11T06:09:38.945Z,1018.05
2018-07-11T06:10:38.874Z,1018.06
2018-07-11T06:11:39.614Z,1018.1
2018-07-11T06:12:38.863Z,1018.04
2018-07-11T06:13:39.138Z,1018.01
2018-07-11T06:14:39.054Z,1018.03
2018-07-11T06:15:38.886Z,1018.04
2018-07-11T06:16:38.903Z,1018.02
2018-07-11T06:17:38.926Z,1018.07
2018-07-11T06:18:38.913Z,1018.08
2018-07-11T06:19:38.931Z,1018.07
2018-07-11T06:20:38.924Z,1018.05
2018-07-11T06:21:38.935Z,1018.03
2018-07-11T06:22:38.940Z,1018.12
2018-07-11T06:23:38.929Z,1018.08
2018-07-11T06:24:38.886Z,1018.16
2018-07-11T06:25:38.903Z,1018.13
2018-07-11T06:26:38.970Z,1018.12
2018-07-11T06:27:38.864Z,1018.18
2018-07-11T06:28:39.243Z,1018.16
2018-07-11T06:29:38.903Z,1018.17
2018-07-11T06:30:38.907Z,1018.13
2018-07-11T06:31:38.949Z,1018.15
2018-07-11T06:32:38.909Z,1018.2
2018-07-11T06:33:41.424Z,1018.17
2018-07-11T06:34:39.378Z,1018.18
2018-07-11T06:35:38.917Z,1018.16
2018-07-11T06:36:38.958Z,1018.19
2018-07-11T06:37:38.947Z,1018.2
2018-07-11T06:38:38.950Z,1018.23
2018-07-11T06:39:39.718Z,1018.25
2018-07-11T06:40:38.913Z,1018.23
2018-07-11T06:41:39.012Z,1018.27
2018-07-11T06:42:43.448Z,1018.27
2018-07-11T06:43:38.946Z,1018.29
2018-07-11T06:44:38.937Z,1018.33
2018-07-11T06:45:38.927Z,1018.31
2018-07-11T06:46:39.107Z,1018.33
2018-07-11T06:47:39.051Z,1018.33
2018-07-11T06:48:38.896Z,1018.35
2018-07-11T06:49:39.011Z,1018.33
2018-07-11T06:50:38.954Z,1018.35
2018-07-11T06:51:39.095Z,1018.35
2018-07-11T06:52:38.944Z,1018.37
2018-07-11T06:53:38.948Z,1018.34
2018-07-11T06:54:38.934Z,1018.38
2018-07-11T06:55:38.966Z,1018.39
2018-07-11T06:56:38.924Z,1018.41
2018-07-11T06:57:39.091Z,1018.38
2018-07-11T06:58:38.936Z,1018.4
2018-07-11T06:59:38.927Z,1018.35
2018-07-11T07:00:38.940Z,1018.37
2018-07-11T07:01:38.960Z,1018.37
2018-07-11T07:02:38.934Z,1018.42
2018-07-11T07:03:39.255Z,1018.41
2018-07-11T07:04:38.927Z,1018.44
2018-07-11T07:05:38.925Z,1018.42
2018-07-11T07:06:38.998Z,1018.44
2018-07-11T07:07:38.946Z,1018.43
2018-07-11T07:08:38.974Z,1018.47
2018-07-11T07:09:38.940Z,1018.42
2018-07-11T07:10:39.003Z,1018.4
2018-07-11T07:11:39.217Z,1018.42
2018-07-11T07:12:39.069Z,1018.41
2018-07-11T07:13:39.078Z,1018.45
2018-07-11T07:14:38.916Z,1018.45
2018-07-11T07:15:38.914Z,1018.4
2018-07-11T07:16:39.056Z,1018.44
2018-07-11T07:17:38.941Z,1018.43
2018-07-11T07:18:38.911Z,1018.42
2018-07-11T07:19:38.956Z,1018.43
2018-07-11T07:20:39.030Z,1018.38
2018-07-11T07:21:38.927Z,1018.38
2018-07-11T07:22:39.112Z,1018.4
2018-07-11T07:23:38.935Z,1018.37
2018-07-11T07:24:38.956Z,1018.35
2018-07-11T07:25:39.029Z,1018.38
2018-07-11T07:26:38.911Z,1018.32
2018-07-11T07:27:39.088Z,1018.28
2018-07-11T07:28:38.986Z,1018.36
2018-07-11T07:29:38.950Z,1018.33
2018-07-11T07:30:38.917Z,1018.35
2018-07-11T07:31:38.944Z,1018.37
2018-07-11T07:32:38.917Z,1018.38
2018-07-11T07:33:38.910Z,1018.38
2018-07-11T07:34:38.990Z,1018.37
2018-07-11T07:35:38.945Z,1018.39
2018-07-11T07:36:38.946Z,1018.35
2018-07-11T07:37:38.924Z,1018.34
2018-07-11T07:38:38.925Z,1018.34
2018-07-11T07:39:38.935Z,1018.38
2018-07-11T07:40:38.946Z,1018.35
2018-07-11T07:41:38.934Z,1018.33
2018-07-11T07:42:38.919Z,1018.36
2018-07-11T07:43:38.950Z,1018.35
2018-07-11T07:44:38.932Z,1018.36
2018-07-11T07:45:38.945Z,1018.38
2018-07-11T07:46:38.938Z,1018.36
2018-07-11T07:47:38.947Z,1018.38
2018-07-11T07:48:38.908Z,1018.4
2018-07-11T07:49:38.924Z,1018.34
2018-07-11T07:50:38.945Z,1018.41
2018-07-11T07:51:38.983Z,1018.4
2018-07-11T07:52:38.937Z,1018.36
2018-07-11T07:53:38.923Z,1018.39
2018-07-11T07:54:38.958Z,1018.38
2018-07-11T07:55:38.955Z,1018.34
2018-07-11T07:56:39.008Z,1018.38
2018-07-11T07:57:39.044Z,1018.37
2018-07-11T07:58:39.004Z,1018.36
2018-07-11T07:59:39.159Z,1018.35
2018-07-11T08:00:39.028Z,1018.42
2018-07-11T08:01:38.971Z,1018.39
2018-07-11T08:02:38.964Z,1018.42
2018-07-11T08:03:38.930Z,1018.42
2018-07-11T08:04:39.182Z,1018.41
2018-07-11T08:05:38.992Z,1018.4
2018-07-11T08:06:39.056Z,1018.34
2018-07-11T08:07:38.930Z,1018.42
2018-07-11T08:08:38.936Z,1018.37
2018-07-11T08:09:38.950Z,1018.4
2018-07-11T08:10:38.973Z,1018.35
2018-07-11T08:11:39.001Z,1018.35
2018-07-11T08:12:39.045Z,1018.31
2018-07-11T08:13:38.947Z,1018.3
2018-07-11T08:14:39.019Z,1018.34
2018-07-11T08:15:38.940Z,1018.3
2018-07-11T08:16:38.981Z,1018.3
2018-07-11T08:17:38.989Z,1018.3
2018-07-11T08:18:39.001Z,1018.32
2018-07-11T08:19:38.943Z,1018.27
2018-07-11T08:20:38.962Z,1018.29
2018-07-11T08:21:38.935Z,1018.3
2018-07-11T08:22:38.954Z,1018.31
2018-07-11T08:23:38.996Z,1018.31
2018-07-11T08:24:38.945Z,1018.25
2018-07-11T08:25:38.941Z,1018.28
2018-07-11T08:26:38.970Z,1018.26
2018-07-11T08:27:38.951Z,1018.26
2018-07-11T08:28:38.980Z,1018.26
2018-07-11T08:29:39.246Z,1018.29
2018-07-11T08:30:38.989Z,1018.29
2018-07-11T08:31:38.958Z,1018.26
2018-07-11T08:32:38.989Z,1018.26
2018-07-11T08:33:38.967Z,1018.25
2018-07-11T08:34:39.231Z,1018.26
2018-07-11T08:35:38.982Z,1018.27
2018-07-11T08:36:38.954Z,1018.3
2018-07-11T08:37:39.020Z,1018.26
2018-07-11T08:38:38.990Z,1018.3
2018-07-11T08:39:38.957Z,1018.24
2018-07-11T08:40:38.962Z,1018.29
2018-07-11T08:41:39.121Z,1018.32
2018-07-11T08:42:39.128Z,1018.34
2018-07-11T08:43:39.004Z,1018.36
2018-07-11T08:44:38.963Z,1018.34
2018-07-11T08:45:38.962Z,1018.3
2018-07-11T08:46:39.211Z,1018.33
2018-07-11T08:47:39.073Z,1018.37
2018-07-11T08:48:38.980Z,1018.41
2018-07-11T08:49:38.957Z,1018.42
2018-07-11T08:50:38.980Z,1018.46
2018-07-11T08:51:38.989Z,1018.45
2018-07-11T08:52:38.987Z,1018.44
2018-07-11T08:53:39.021Z,1018.45
2018-07-11T08:54:38.957Z,1018.45
2018-07-11T08:55:39.056Z,1018.47
2018-07-11T08:56:38.964Z,1018.47
2018-07-11T08:57:38.987Z,1018.49
2018-07-11T08:58:39.057Z,1018.52
2018-07-11T08:59:38.989Z,1018.52
2018-07-11T09:00:38.966Z,1018.49
2018-07-11T09:01:38.974Z,1018.56
2018-07-11T09:02:39.099Z,1018.55
2018-07-11T09:03:39.012Z,1018.56
2018-07-11T09:04:39.303Z,1018.58
2018-07-11T09:05:39.020Z,1018.59
2018-07-11T09:06:38.999Z,1018.58
2018-07-11T09:07:39.103Z,1018.56
2018-07-11T09:08:39.310Z,1018.57
2018-07-11T09:09:39.020Z,1018.57
2018-07-11T09:10:39.291Z,1018.61
2018-07-11T09:11:39.001Z,1018.59
2018-07-11T09:12:38.983Z,1018.63
2018-07-11T09:13:39.003Z,1018.63
2018-07-11T09:14:39.059Z,1018.64
2018-07-11T09:15:38.985Z,1018.62
2018-07-11T09:16:39.079Z,1018.61
2018-07-11T09:17:39.011Z,1018.61
2018-07-11T09:18:39.053Z,1018.57
2018-07-11T09:19:39.011Z,1018.59
2018-07-11T09:20:38.999Z,1018.57
2018-07-11T09:21:38.982Z,1018.6
2018-07-11T09:22:39.171Z,1018.6
2018-07-11T09:23:39.153Z,1018.61
2018-07-11T09:24:39.066Z,1018.63
2018-07-11T09:25:38.984Z,1018.63
2018-07-11T09:26:39.023Z,1018.61
2018-07-11T09:27:38.977Z,1018.6
2018-07-11T09:28:38.972Z,1018.66
2018-07-11T09:29:39.563Z,1018.64
2018-07-11T09:30:39.247Z,1018.65
2018-07-11T09:31:39.149Z,1018.7
2018-07-11T09:32:39.015Z,1018.68
2018-07-11T09:33:39.090Z,1018.68
2018-07-11T09:34:39.050Z,1018.7
2018-07-11T09:35:38.984Z,1018.69
2018-07-11T09:36:39.091Z,1018.66
2018-07-11T09:37:39.173Z,1018.71
2018-07-11T09:38:39.010Z,1018.71
2018-07-11T09:39:38.994Z,1018.73
2018-07-11T09:40:39.171Z,1018.75
2018-07-11T09:41:38.990Z,1018.74
2018-07-11T09:42:39.011Z,1018.76
2018-07-11T09:43:39.013Z,1018.73
2018-07-11T09:44:39.007Z,1018.75
2018-07-11T09:45:39.352Z,1018.74
2018-07-11T09:46:39.141Z,1018.78
2018-07-11T09:47:39.129Z,1018.76
2018-07-11T09:48:39.219Z,1018.72
2018-07-11T09:49:39.070Z,1018.69
2018-07-11T09:50:39.035Z,1018.71
2018-07-11T09:51:39.218Z,1018.73
2018-07-11T09:52:38.995Z,1018.74
2018-07-11T09:53:39.055Z,1018.76
2018-07-11T09:54:39.064Z,1018.73
2018-07-11T09:55:39.006Z,1018.77
2018-07-11T09:56:39.005Z,1018.76
2018-07-11T09:57:39.148Z,1018.79
2018-07-11T09:58:38.992Z,1018.75
2018-07-11T09:59:38.999Z,1018.77
2018-07-11T10:00:39.070Z,1018.76
2018-07-11T10:01:39.046Z,1018.79
2018-07-11T10:02:39.000Z,1018.77
2018-07-11T10:03:39.130Z,1018.84
2018-07-11T10:04:39.021Z,1018.83
2018-07-11T10:05:39.008Z,1018.82
2018-07-11T10:06:40.135Z,1018.85
2018-07-11T10:07:39.046Z,1018.9
2018-07-11T10:08:39.014Z,1018.83
2018-07-11T10:09:39.007Z,1018.85
2018-07-11T10:10:39.016Z,1018.87
2018-07-11T10:11:39.074Z,1018.86
2018-07-11T10:12:39.273Z,1018.84
2018-07-11T10:13:39.007Z,1018.83
2018-07-11T10:14:39.026Z,1018.86
2018-07-11T10:15:39.005Z,1018.84
2018-07-11T10:16:39.007Z,1018.82
2018-07-11T10:17:39.207Z,1018.87
2018-07-11T10:18:39.021Z,1018.89
2018-07-11T10:19:39.030Z,1018.85
2018-07-11T10:20:39.036Z,1018.88
2018-07-11T10:21:39.304Z,1018.88
2018-07-11T10:22:39.194Z,1018.87
2018-07-11T10:23:39.062Z,1018.86
2018-07-11T10:24:39.025Z,1018.88
2018-07-11T10:25:39.135Z,1018.86
2018-07-11T10:26:39.089Z,1018.84
2018-07-11T10:27:39.011Z,1018.84
2018-07-11T10:28:39.171Z,1018.83
2018-07-11T10:29:39.062Z,1018.88
2018-07-11T10:30:39.024Z,1018.84
2018-07-11T10:31:39.037Z,1018.82
2018-07-11T10:32:39.058Z,1018.82
2018-07-11T10:33:39.128Z,1018.83
2018-07-11T10:34:39.030Z,1018.83
2018-07-11T10:35:39.089Z,1018.82
2018-07-11T10:36:39.039Z,1018.85
2018-07-11T10:37:39.053Z,1018.82
2018-07-11T10:38:39.093Z,1018.8
2018-07-11T10:39:39.193Z,1018.77
2018-07-11T10:40:39.103Z,1018.79
2018-07-11T10:41:39.127Z,1018.79
2018-07-11T10:42:39.058Z,1018.79
2018-07-11T10:43:39.227Z,1018.78
2018-07-11T10:44:39.048Z,1018.78
2018-07-11T10:45:39.075Z,1018.75
2018-07-11T10:46:39.071Z,1018.73
2018-07-11T10:47:39.079Z,1018.68
2018-07-11T10:48:39.042Z,1018.7
2018-07-11T10:49:39.245Z,1018.68
2018-07-11T10:50:39.152Z,1018.69
2018-07-11T10:51:39.094Z,1018.69
2018-07-11T10:52:39.141Z,1018.64
2018-07-11T10:53:39.203Z,1018.61
2018-07-11T10:54:39.044Z,1018.58
2018-07-11T10:55:39.062Z,1018.57
2018-07-11T10:56:39.045Z,1018.57
2018-07-11T10:57:39.292Z,1018.61
2018-07-11T10:58:39.068Z,1018.6
2018-07-11T10:59:39.070Z,1018.61
2018-07-11T11:00:39.278Z,1018.58
2018-07-11T11:01:39.053Z,1018.6
2018-07-11T11:02:39.237Z,1018.57
2018-07-11T11:03:39.063Z,1018.54
2018-07-11T11:04:39.078Z,1018.56
2018-07-11T11:05:39.215Z,1018.57
2018-07-11T11:06:39.134Z,1018.51
2018-07-11T11:07:39.062Z,1018.53
2018-07-11T11:08:39.099Z,1018.5
2018-07-11T11:09:39.123Z,1018.55
2018-07-11T11:10:39.059Z,1018.47
2018-07-11T11:11:39.032Z,1018.5
2018-07-11T11:12:39.095Z,1018.49
2018-07-11T11:13:39.073Z,1018.51
2018-07-11T11:14:39.141Z,1018.47
2018-07-11T11:15:39.094Z,1018.48
2018-07-11T11:16:39.087Z,1018.45
2018-07-11T11:17:39.069Z,1018.49
2018-07-11T11:18:39.054Z,1018.44
2018-07-11T11:19:39.073Z,1018.42
2018-07-11T11:20:39.092Z,1018.44
2018-07-11T11:21:39.081Z,1018.39
2018-07-11T11:22:39.081Z,1018.37
2018-07-11T11:23:39.056Z,1018.33
2018-07-11T11:24:39.080Z,1018.35
2018-07-11T11:25:39.118Z,1018.26
2018-07-11T11:26:39.080Z,1018.28
2018-07-11T11:27:39.116Z,1018.29
2018-07-11T11:28:39.126Z,1018.25
2018-07-11T11:29:39.105Z,1018.26
2018-07-11T11:30:39.074Z,1018.32
2018-07-11T11:31:39.119Z,1018.33
2018-07-11T11:32:39.277Z,1018.29
2018-07-11T11:33:39.102Z,1018.26
2018-07-11T11:34:39.065Z,1018.26
2018-07-11T11:35:39.255Z,1018.21
2018-07-11T11:36:39.251Z,1018.28
2018-07-11T11:37:39.104Z,1018.2
2018-07-11T11:38:39.076Z,1018.22
2018-07-11T11:39:39.118Z,1018.19
2018-07-11T11:40:39.079Z,1018.2
2018-07-11T11:41:39.504Z,1018.16
2018-07-11T11:42:39.638Z,1018.2
2018-07-11T11:43:39.117Z,1018.16
2018-07-11T11:44:39.096Z,1018.2
2018-07-11T11:45:39.113Z,1018.18
2018-07-11T11:46:39.127Z,1018.21
2018-07-11T11:47:39.126Z,1018.23
2018-07-11T11:48:39.097Z,1018.24
2018-07-11T11:49:39.088Z,1018.18
2018-07-11T11:50:39.105Z,1018.22
2018-07-11T11:51:39.189Z,1018.23
2018-07-11T11:52:39.194Z,1018.26
2018-07-11T11:53:39.115Z,1018.24
2018-07-11T11:54:39.114Z,1018.27
2018-07-11T11:55:39.093Z,1018.23
2018-07-11T11:56:39.076Z,1018.29
2018-07-11T11:57:39.101Z,1018.26
2018-07-11T11:58:39.215Z,1018.29
2018-07-11T11:59:39.088Z,1018.37
2018-07-11T12:00:39.183Z,1018.33
2018-07-11T12:01:39.175Z,1018.36
2018-07-11T12:02:39.136Z,1018.35
2018-07-11T12:03:39.077Z,1018.37
2018-07-11T12:04:39.103Z,1018.38
2018-07-11T12:05:39.096Z,1018.42
2018-07-11T12:06:39.267Z,1018.41
2018-07-11T12:07:39.162Z,1018.42
2018-07-11T12:08:39.075Z,1018.44